createdAt,value
2019-01-27T00:02:19.261Z,-0.22
2019-01-27T00:04:49.997Z,-0.25
2019-01-27T00:07:18.631Z,-0.48
2019-01-27T00:09:47.317Z,-0.56
2019-01-27T00:12:15.945Z,-0.53
2019-01-27T00:14:44.628Z,-0.51
2019-01-27T00:17:14.390Z,-0.53
2019-01-27T00:19:43.036Z,-0.37
2019-01-27T00:22:11.658Z,-0.23
2019-01-27T00:24:40.272Z,-0.11
2019-01-27T00:27:08.949Z,-0.02
2019-01-27T00:29:37.629Z,0.10
2019-01-27T00:32:06.235Z,0.17
2019-01-27T00:34:34.911Z,0.23
2019-01-27T00:37:03.553Z,0.26
2019-01-27T00:39:32.229Z,0.03
2019-01-27T00:42:02.061Z,-0.29
2019-01-27T00:44:30.699Z,-0.37
2019-01-27T00:46:59.318Z,-0.50
2019-01-27T00:49:28.001Z,-0.58
2019-01-27T00:51:56.632Z,-0.53
2019-01-27T00:54:25.342Z,-0.32
2019-01-27T00:56:53.994Z,-0.39
2019-01-27T00:59:22.625Z,-0.32
2019-01-27T01:01:51.255Z,-0.58
2019-01-27T01:04:21.513Z,-0.61
2019-01-27T01:06:50.171Z,-0.57
2019-01-27T01:09:18.833Z,-0.51
2019-01-27T01:11:47.556Z,-0.41
2019-01-27T01:14:16.248Z,-0.40
2019-01-27T01:16:44.869Z,-0.33
2019-01-27T01:19:13.552Z,-0.24
2019-01-27T01:21:42.231Z,-0.46
2019-01-27T01:24:12.172Z,-0.47
2019-01-27T01:26:40.803Z,-0.49
2019-01-27T01:29:09.519Z,-0.64
2019-01-27T01:31:38.145Z,-0.62
2019-01-27T01:34:12.880Z,-0.58
2019-01-27T01:36:41.573Z,-0.61
2019-01-27T01:39:10.252Z,-0.66
2019-01-27T01:41:38.865Z,-0.62
2019-01-27T01:44:10.417Z,-0.60
2019-01-27T01:46:39.040Z,-0.43
2019-01-27T01:49:07.733Z,-0.57
2019-01-27T01:51:36.350Z,-0.57
2019-01-27T01:54:05.482Z,-0.57
2019-01-27T01:56:34.197Z,-0.62
2019-01-27T01:59:02.899Z,-0.67
2019-01-27T02:01:31.525Z,-0.74
2019-01-27T02:04:03.037Z,-0.77
2019-01-27T02:06:31.716Z,-0.81
2019-01-27T02:09:00.420Z,-0.84
2019-01-27T02:11:29.109Z,-0.87
2019-01-27T02:13:57.724Z,-0.76
2019-01-27T02:16:26.415Z,-0.73
2019-01-27T02:18:55.103Z,-0.66
2019-01-27T02:21:23.725Z,-0.67
2019-01-27T02:23:53.829Z,-0.72
2019-01-27T02:26:22.437Z,-0.68
2019-01-27T02:28:51.127Z,-0.71
2019-01-27T02:31:22.792Z,-0.68
2019-01-27T02:33:51.490Z,-0.75
2019-01-27T02:36:20.178Z,-0.59
2019-01-27T02:38:48.872Z,-0.53
2019-01-27T02:41:26.465Z,-0.74
2019-01-27T02:43:55.211Z,-0.76
2019-01-27T02:46:23.891Z,-0.76
2019-01-27T02:48:52.586Z,-0.71
2019-01-27T02:51:21.206Z,-0.76
2019-01-27T02:53:49.898Z,-0.76
2019-01-27T02:56:18.596Z,-0.76
2019-01-27T02:58:49.241Z,-0.71
2019-01-27T03:01:17.574Z,-0.74
2019-01-27T03:03:46.253Z,-0.80
2019-01-27T03:06:16.505Z,-0.99
2019-01-27T03:08:46.801Z,-1.04
2019-01-27T03:11:15.440Z,-1.05
2019-01-27T03:13:45.624Z,-0.98
2019-01-27T03:16:15.004Z,-0.91
2019-01-27T03:18:43.646Z,-1.05
2019-01-27T03:21:12.324Z,-0.97
2019-01-27T03:23:41.055Z,-0.97
2019-01-27T03:26:09.747Z,-0.99
2019-01-27T03:28:38.386Z,-0.85
2019-01-27T03:31:07.103Z,-0.90
2019-01-27T03:33:35.823Z,-0.88
2019-01-27T03:36:04.557Z,-0.90
2019-01-27T03:38:34.744Z,-0.90
2019-01-27T03:41:03.422Z,-0.84
2019-01-27T03:43:32.098Z,-0.84
2019-01-27T03:46:00.789Z,-0.77
2019-01-27T03:48:32.177Z,-0.74
2019-01-27T03:51:00.863Z,-0.68
2019-01-27T03:53:29.549Z,-0.74
2019-01-27T03:55:58.177Z,-0.83
2019-01-27T03:58:26.851Z,-0.78
2019-01-27T04:00:55.531Z,-0.75
2019-01-27T04:03:24.223Z,-0.73
2019-01-27T04:05:52.892Z,-0.75
2019-01-27T04:08:21.578Z,-0.68
2019-01-27T04:10:50.198Z,-0.69
2019-01-27T04:13:18.871Z,-0.69
2019-01-27T04:15:49.464Z,-0.65
2019-01-27T04:18:18.153Z,-0.65
2019-01-27T04:20:46.789Z,-0.66
2019-01-27T04:23:15.603Z,-0.58
2019-01-27T04:25:44.268Z,-0.61
2019-01-27T04:28:12.932Z,-0.79
2019-01-27T04:30:41.637Z,-0.90
2019-01-27T04:33:10.251Z,-1.07
2019-01-27T04:35:38.943Z,-1.02
2019-01-27T04:38:07.558Z,-1.08
2019-01-27T04:40:36.263Z,-1.12
2019-01-27T04:43:05.011Z,-1.11
2019-01-27T04:45:37.803Z,-1.10
2019-01-27T04:48:07.106Z,-1.11
2019-01-27T04:50:35.741Z,-1.14
2019-01-27T04:53:04.944Z,-1.05
2019-01-27T04:55:36.534Z,-1.07
2019-01-27T04:58:06.051Z,-1.11
2019-01-27T05:00:34.640Z,-1.03
2019-01-27T05:03:17.707Z,-0.97
2019-01-27T05:05:46.403Z,-1.03
2019-01-27T05:08:15.058Z,-0.89
2019-01-27T05:10:43.755Z,-1.03
2019-01-27T05:13:12.363Z,-1.14
2019-01-27T05:15:41.045Z,-1.17
2019-01-27T05:18:10.654Z,-1.11
2019-01-27T05:20:39.333Z,-1.08
2019-01-27T05:23:07.951Z,-1.14
2019-01-27T05:25:36.691Z,-1.15
2019-01-27T05:28:05.449Z,-1.15
2019-01-27T05:30:34.167Z,-1.12
2019-01-27T05:33:02.899Z,-0.99
2019-01-27T05:35:31.710Z,-0.99
2019-01-27T05:38:00.363Z,-1.02
2019-01-27T05:40:28.983Z,-1.08
2019-01-27T05:42:57.670Z,-1.13
2019-01-27T05:45:26.284Z,-1.17
2019-01-27T05:47:54.962Z,-1.27
2019-01-27T05:50:23.582Z,-1.22
2019-01-27T05:52:52.274Z,-1.20
2019-01-27T05:55:21.400Z,-1.21
2019-01-27T05:57:50.022Z,-1.22
2019-01-27T06:00:33.633Z,-1.27
2019-01-27T06:03:02.384Z,-1.29
2019-01-27T06:05:31.022Z,-1.27
2019-01-27T06:07:59.706Z,-1.30
2019-01-27T06:10:28.409Z,-1.28
2019-01-27T06:12:57.101Z,-1.23
2019-01-27T06:15:25.741Z,-1.21
2019-01-27T06:17:54.461Z,-1.12
2019-01-27T06:20:23.079Z,-1.14
2019-01-27T06:22:51.763Z,-1.18
2019-01-27T06:25:20.865Z,-1.15
2019-01-27T06:27:49.485Z,-1.09
2019-01-27T06:30:23.744Z,-1.03
2019-01-27T06:32:53.982Z,-1.07
2019-01-27T06:35:22.656Z,-1.15
2019-01-27T06:37:51.271Z,-1.23
2019-01-27T06:40:19.965Z,-1.18
2019-01-27T06:42:48.607Z,-1.16
2019-01-27T06:45:17.224Z,-1.25
2019-01-27T06:47:45.936Z,-1.17
2019-01-27T06:50:15.065Z,-1.21
2019-01-27T06:52:43.686Z,-1.18
2019-01-27T06:55:15.376Z,-1.18
2019-01-27T06:57:44.010Z,-1.21
2019-01-27T07:00:41.242Z,-1.20
2019-01-27T07:03:23.278Z,-1.11
2019-01-27T07:05:59.572Z,-1.06
2019-01-27T07:08:38.795Z,-1.01
2019-01-27T07:11:11.795Z,-0.95
2019-01-27T07:13:42.024Z,-0.95
2019-01-27T07:16:12.280Z,-0.96
2019-01-27T07:18:57.722Z,-0.90
2019-01-27T07:21:30.933Z,-0.91
2019-01-27T07:24:01.125Z,-0.90
2019-01-27T07:26:49.749Z,-0.81
2019-01-27T07:29:26.001Z,-0.81
2019-01-27T07:32:05.328Z,-0.84
2019-01-27T07:34:41.592Z,-0.83
2019-01-27T07:37:28.077Z,-1.10
2019-01-27T07:40:07.219Z,-0.93
2019-01-27T07:42:37.691Z,-0.76
2019-01-27T07:45:11.261Z,-0.61
2019-01-27T07:47:41.469Z,-0.77
2019-01-27T07:50:16.867Z,-0.85
2019-01-27T07:52:52.836Z,-0.75
2019-01-27T07:55:41.479Z,-0.76
2019-01-27T07:58:11.796Z,-0.59
2019-01-27T08:00:42.107Z,-0.67
2019-01-27T08:03:28.840Z,-0.55
2019-01-27T08:06:01.998Z,-0.45
2019-01-27T08:08:32.255Z,-0.41
2019-01-27T08:11:18.793Z,-0.33
2019-01-27T08:13:51.909Z,-0.35
2019-01-27T08:16:24.233Z,-0.19
2019-01-27T08:19:03.465Z,-0.50
2019-01-27T08:21:40.605Z,-0.43
2019-01-27T08:24:21.283Z,-0.31
2019-01-27T08:27:00.368Z,-0.13
2019-01-27T08:29:30.628Z,0.03
2019-01-27T08:32:06.876Z,0.09
2019-01-27T08:34:37.085Z,0.12
2019-01-27T08:37:16.179Z,0.22
2019-01-27T08:39:46.410Z,0.34
2019-01-27T08:42:16.661Z,0.38
2019-01-27T08:44:47.002Z,0.53
2019-01-27T08:47:18.612Z,0.69
2019-01-27T08:49:47.237Z,0.93
2019-01-27T08:52:15.940Z,1.16
2019-01-27T08:54:44.606Z,1.59
2019-01-27T08:57:16.369Z,1.71
2019-01-27T08:59:47.250Z,1.40
2019-01-27T09:02:33.830Z,1.21
2019-01-27T09:05:04.171Z,1.02
2019-01-27T09:07:49.120Z,0.93
2019-01-27T09:10:19.332Z,0.91
2019-01-27T09:13:01.939Z,0.86
2019-01-27T09:15:50.299Z,0.84
2019-01-27T09:18:35.876Z,1.17
2019-01-27T09:21:22.533Z,1.37
2019-01-27T09:24:03.100Z,1.46
2019-01-27T09:26:33.464Z,1.62
2019-01-27T09:29:03.740Z,1.65
2019-01-27T09:31:45.909Z,1.72
2019-01-27T09:34:28.362Z,1.63
2019-01-27T09:37:14.935Z,1.66
2019-01-27T09:39:47.978Z,1.80
2019-01-27T09:42:30.000Z,1.82
2019-01-27T09:45:02.958Z,1.65
2019-01-27T09:47:35.964Z,1.97
2019-01-27T09:50:12.631Z,1.16
2019-01-27T09:52:51.917Z,1.23
2019-01-27T09:55:22.191Z,1.48
2019-01-27T09:58:01.372Z,1.44
2019-01-27T10:00:37.947Z,1.61
2019-01-27T10:03:10.915Z,1.29
2019-01-27T10:05:41.194Z,1.70
2019-01-27T10:08:28.109Z,1.62
2019-01-27T10:11:05.722Z,1.71
2019-01-27T10:13:54.036Z,1.73
2019-01-27T10:16:24.250Z,1.78
2019-01-27T10:18:54.611Z,2.16
2019-01-27T10:21:24.829Z,2.27
2019-01-27T10:24:01.180Z,2.40
2019-01-27T10:26:34.455Z,2.51
2019-01-27T10:29:06.293Z,2.30
2019-01-27T10:31:39.230Z,2.07
2019-01-27T10:34:19.582Z,1.93
2019-01-27T10:36:59.537Z,1.70
2019-01-27T10:39:29.755Z,1.87
2019-01-27T10:42:00.020Z,1.79
2019-01-27T10:44:46.603Z,1.87
2019-01-27T10:47:18.706Z,2.12
2019-01-27T10:49:51.958Z,1.85
2019-01-27T10:52:26.296Z,2.12
2019-01-27T10:55:05.359Z,2.11
2019-01-27T10:57:40.493Z,2.01
2019-01-27T11:00:29.961Z,1.71
2019-01-27T11:03:01.710Z,2.34
2019-01-27T11:05:42.064Z,2.73
2019-01-27T11:08:12.424Z,2.92
2019-01-27T11:10:54.649Z,3.39
2019-01-27T11:13:30.977Z,3.39
2019-01-27T11:16:17.293Z,4.04
2019-01-27T11:18:53.687Z,4.07
2019-01-27T11:21:43.397Z,4.16
2019-01-27T11:24:16.491Z,3.76
2019-01-27T11:27:01.667Z,3.35
2019-01-27T11:29:31.907Z,3.80
2019-01-27T11:32:12.067Z,3.38
2019-01-27T11:34:48.467Z,3.39
2019-01-27T11:37:20.575Z,3.95
2019-01-27T11:40:07.326Z,4.07
2019-01-27T11:42:46.369Z,3.96
2019-01-27T11:45:32.019Z,3.91
2019-01-27T11:48:11.173Z,3.77
2019-01-27T11:50:41.704Z,3.69
2019-01-27T11:53:10.393Z,3.67
2019-01-27T11:55:39.171Z,3.77
2019-01-27T11:58:07.873Z,3.48
2019-01-27T12:00:41.059Z,3.93
2019-01-27T12:03:11.513Z,4.00
2019-01-27T12:05:40.274Z,4.57
2019-01-27T12:08:08.993Z,5.02
2019-01-27T12:10:39.125Z,4.74
2019-01-27T12:13:07.972Z,4.39
2019-01-27T12:15:41.480Z,4.28
2019-01-27T12:18:10.395Z,3.60
2019-01-27T12:20:49.914Z,3.54
2019-01-27T12:23:19.827Z,3.51
2019-01-27T12:25:51.325Z,3.24
2019-01-27T12:28:19.955Z,3.66
2019-01-27T12:30:48.726Z,3.88
2019-01-27T12:33:17.541Z,3.61
2019-01-27T12:35:50.725Z,3.49
2019-01-27T12:38:19.415Z,3.42
2019-01-27T12:40:48.300Z,3.36
2019-01-27T12:43:18.593Z,3.39
2019-01-27T12:45:50.184Z,3.05
2019-01-27T12:48:20.024Z,3.36
2019-01-27T12:50:48.745Z,3.80
2019-01-27T12:53:17.427Z,3.79
2019-01-27T12:55:47.125Z,3.96
2019-01-27T12:58:15.857Z,3.45
2019-01-27T13:00:47.601Z,3.48
2019-01-27T13:03:17.574Z,3.52
2019-01-27T13:05:47.766Z,3.79
2019-01-27T13:08:18.095Z,3.30
2019-01-27T13:10:46.699Z,3.53
2019-01-27T13:13:15.386Z,3.30
2019-01-27T13:15:46.511Z,3.39
2019-01-27T13:18:15.155Z,3.27
2019-01-27T13:20:45.035Z,3.24
2019-01-27T13:23:13.761Z,3.10
2019-01-27T13:25:42.454Z,3.15
2019-01-27T13:28:15.512Z,3.16
2019-01-27T13:30:46.236Z,3.02
2019-01-27T13:33:14.610Z,3.07
2019-01-27T13:35:43.352Z,3.10
2019-01-27T13:38:14.868Z,2.92
2019-01-27T13:40:43.720Z,3.16
2019-01-27T13:43:12.385Z,3.31
2019-01-27T13:45:41.092Z,3.24
2019-01-27T13:48:09.776Z,3.13
2019-01-27T13:50:38.395Z,3.13
2019-01-27T13:53:07.113Z,3.25
2019-01-27T13:55:37.201Z,3.20
2019-01-27T13:58:06.385Z,3.39
2019-01-27T14:00:42.317Z,3.29
2019-01-27T14:03:12.637Z,3.05
2019-01-27T14:05:41.335Z,2.92
2019-01-27T14:08:10.224Z,2.98
2019-01-27T14:10:39.205Z,2.93
2019-01-27T14:13:07.905Z,2.89
2019-01-27T14:15:39.039Z,2.68
2019-01-27T14:18:08.661Z,2.82
2019-01-27T14:20:37.960Z,2.85
2019-01-27T14:23:06.837Z,2.85
2019-01-27T14:25:35.583Z,2.85
2019-01-27T14:28:04.786Z,2.66
2019-01-27T14:30:38.700Z,2.44
2019-01-27T14:33:08.091Z,2.52
2019-01-27T14:35:39.750Z,2.51
2019-01-27T14:38:08.373Z,2.54
2019-01-27T14:40:40.067Z,2.58
2019-01-27T14:43:10.318Z,2.71
2019-01-27T14:45:38.983Z,2.54
2019-01-27T14:48:11.351Z,2.67
2019-01-27T14:50:44.576Z,2.51
2019-01-27T14:53:14.939Z,2.48
2019-01-27T14:55:45.147Z,2.52
2019-01-27T14:58:13.927Z,2.65
2019-01-27T15:00:44.454Z,2.58
2019-01-27T15:03:14.068Z,2.38
2019-01-27T15:05:42.818Z,2.37
2019-01-27T15:08:13.070Z,2.24
2019-01-27T15:10:41.816Z,2.34
2019-01-27T15:13:10.472Z,2.32
2019-01-27T15:15:39.155Z,2.29
2019-01-27T15:18:14.208Z,2.23
2019-01-27T15:20:45.655Z,2.22
2019-01-27T15:23:15.873Z,2.25
2019-01-27T15:25:44.588Z,2.32
2019-01-27T15:28:15.891Z,2.11
2019-01-27T15:30:44.634Z,1.94
2019-01-27T15:33:14.521Z,2.01
2019-01-27T15:35:45.403Z,1.95
2019-01-27T15:38:14.097Z,1.89
2019-01-27T15:40:42.758Z,1.90
2019-01-27T15:43:11.480Z,1.92
2019-01-27T15:45:40.206Z,1.95
2019-01-27T15:48:08.912Z,1.88
2019-01-27T15:50:37.685Z,1.87
2019-01-27T15:53:08.335Z,1.89
2019-01-27T15:55:39.135Z,1.80
2019-01-27T15:58:08.133Z,1.78
2019-01-27T16:00:38.209Z,1.79
2019-01-27T16:03:09.825Z,1.71
2019-01-27T16:05:38.455Z,1.65
2019-01-27T16:08:07.273Z,1.68
2019-01-27T16:10:35.975Z,1.63
2019-01-27T16:13:06.986Z,1.57
2019-01-27T16:15:36.787Z,1.57
2019-01-27T16:18:07.085Z,1.57
2019-01-27T16:20:35.816Z,1.57
2019-01-27T16:23:06.115Z,1.50
2019-01-27T16:25:34.912Z,1.46
2019-01-27T16:28:03.568Z,1.41
2019-01-27T16:30:44.729Z,1.42
2019-01-27T16:33:21.948Z,1.36
2019-01-27T16:35:53.420Z,1.37
2019-01-27T16:38:22.359Z,1.34
2019-01-27T16:40:53.886Z,1.38
2019-01-27T16:43:22.527Z,1.41
2019-01-27T16:45:52.684Z,1.40
2019-01-27T16:48:25.536Z,1.45
2019-01-27T16:50:54.245Z,1.45
2019-01-27T16:53:22.927Z,1.33
2019-01-27T16:55:51.592Z,1.25
2019-01-27T16:58:20.275Z,1.28
2019-01-27T17:00:49.118Z,1.31
2019-01-27T17:03:17.769Z,1.25
2019-01-27T17:05:46.561Z,1.15
2019-01-27T17:08:15.266Z,1.18
2019-01-27T17:10:43.995Z,1.24
2019-01-27T17:13:15.591Z,1.36
2019-01-27T17:15:46.224Z,1.47
2019-01-27T17:18:15.032Z,1.20
2019-01-27T17:20:43.859Z,1.15
2019-01-27T17:23:12.669Z,1.10
2019-01-27T17:25:41.458Z,1.16
2019-01-27T17:28:10.278Z,1.17
2019-01-27T17:30:40.214Z,1.17
2019-01-27T17:33:10.307Z,1.16
2019-01-27T17:35:39.484Z,1.61
2019-01-27T17:38:09.637Z,1.38
2019-01-27T17:40:38.517Z,1.30
2019-01-27T17:43:07.420Z,1.23
2019-01-27T17:45:38.201Z,1.11
2019-01-27T17:48:07.016Z,0.99
2019-01-27T17:50:35.922Z,0.86
2019-01-27T17:53:04.768Z,0.90
2019-01-27T17:55:43.939Z,0.96
2019-01-27T17:58:34.936Z,1.17
2019-01-27T18:01:10.341Z,1.13
2019-01-27T18:03:53.892Z,1.02
2019-01-27T18:06:33.393Z,1.18
2019-01-27T18:09:21.435Z,0.79
2019-01-27T18:11:51.897Z,0.67
2019-01-27T18:14:22.157Z,0.57
2019-01-27T18:16:50.828Z,0.50
2019-01-27T18:19:22.656Z,0.45
2019-01-27T18:21:51.447Z,0.26
2019-01-27T18:24:22.225Z,0.10
2019-01-27T18:26:50.669Z,0.17
2019-01-27T18:29:23.575Z,0.15
2019-01-27T18:31:52.201Z,0.01
2019-01-27T18:34:20.951Z,-0.02
2019-01-27T18:36:52.647Z,-0.15
2019-01-27T18:39:23.431Z,-0.17
2019-01-27T18:41:53.701Z,-0.09
2019-01-27T18:44:32.954Z,-0.15
2019-01-27T18:47:01.718Z,-0.14
2019-01-27T18:49:34.394Z,-0.06
2019-01-27T18:52:01.801Z,0.10
2019-01-27T18:54:38.370Z,0.10
2019-01-27T18:57:16.060Z,0.17
2019-01-27T18:59:52.155Z,0.13
2019-01-27T19:02:27.283Z,0.26
2019-01-27T19:05:00.782Z,0.20
2019-01-27T19:07:31.327Z,0.26
2019-01-27T19:10:04.275Z,0.19
2019-01-27T19:12:34.795Z,0.27
2019-01-27T19:15:08.149Z,0.42
2019-01-27T19:17:38.486Z,0.54
2019-01-27T19:20:11.949Z,0.65
2019-01-27T19:22:57.286Z,0.70
2019-01-27T19:25:39.656Z,0.75
2019-01-27T19:28:16.868Z,0.65
2019-01-27T19:30:47.200Z,0.32
2019-01-27T19:33:20.285Z,0.09
2019-01-27T19:35:58.110Z,-0.06
2019-01-27T19:38:34.523Z,-0.20
2019-01-27T19:41:04.841Z,-0.48
2019-01-27T19:43:35.263Z,-0.40
2019-01-27T19:46:19.019Z,-0.47
2019-01-27T19:48:55.252Z,-0.50
2019-01-27T19:51:34.583Z,-0.52
2019-01-27T19:54:04.854Z,-0.45
2019-01-27T19:56:38.323Z,-0.37
2019-01-27T19:59:15.113Z,-0.38
2019-01-27T20:01:45.439Z,-0.32
2019-01-27T20:04:33.900Z,-0.32
2019-01-27T20:07:10.098Z,-0.30
2019-01-27T20:09:40.370Z,-0.62
2019-01-27T20:12:14.198Z,-0.68
2019-01-27T20:14:45.629Z,-0.53
2019-01-27T20:17:28.205Z,-0.49
2019-01-27T20:20:16.829Z,-0.47
2019-01-27T20:22:49.844Z,-0.50
2019-01-27T20:25:32.230Z,-0.46
2019-01-27T20:28:05.690Z,-0.40
2019-01-27T20:30:38.797Z,-0.33
2019-01-27T20:33:16.082Z,-0.50
2019-01-27T20:36:07.125Z,-0.47
2019-01-27T20:38:54.048Z,-0.38
2019-01-27T20:41:34.670Z,-0.33
2019-01-27T20:44:11.070Z,-0.27
2019-01-27T20:46:41.282Z,-0.39
2019-01-27T20:49:26.596Z,-0.29
2019-01-27T20:52:08.918Z,-0.24
2019-01-27T20:54:42.151Z,-0.24
2019-01-27T20:57:12.371Z,-0.26
2019-01-27T20:59:45.673Z,-0.17
2019-01-27T21:02:15.884Z,-0.06
2019-01-27T21:04:46.247Z,-0.06
2019-01-27T21:07:21.913Z,-0.04
2019-01-27T21:09:52.181Z,0.04
2019-01-27T21:12:22.399Z,0.05
2019-01-27T21:14:55.854Z,0.09
2019-01-27T21:17:41.384Z,0.15
2019-01-27T21:20:11.980Z,0.21
2019-01-27T21:22:40.601Z,0.23
2019-01-27T21:25:12.354Z,0.26
2019-01-27T21:27:41.052Z,0.24
2019-01-27T21:30:13.062Z,0.20
2019-01-27T21:32:41.703Z,0.27
2019-01-27T21:35:11.233Z,0.18
2019-01-27T21:37:41.405Z,0.11
2019-01-27T21:40:13.127Z,0.16
2019-01-27T21:42:47.202Z,0.20
2019-01-27T21:45:14.737Z,0.23
2019-01-27T21:47:43.419Z,0.18
2019-01-27T21:50:15.079Z,-0.02
2019-01-27T21:52:43.817Z,-0.12
2019-01-27T21:55:12.462Z,-0.25
2019-01-27T21:57:41.156Z,-0.27
2019-01-27T22:00:13.137Z,-0.16
2019-01-27T22:02:41.777Z,-0.01
2019-01-27T22:05:10.494Z,0.00
2019-01-27T22:07:44.491Z,-0.06
2019-01-27T22:10:17.320Z,-0.03
2019-01-27T22:12:46.053Z,-0.18
2019-01-27T22:15:15.374Z,-0.11
2019-01-27T22:17:44.133Z,-0.19
2019-01-27T22:20:14.758Z,-0.15
2019-01-27T22:22:43.464Z,-0.11
2019-01-27T22:25:13.887Z,-0.08
2019-01-27T22:27:42.578Z,-0.09
2019-01-27T22:30:19.216Z,-0.12
2019-01-27T22:32:47.904Z,0.21
2019-01-27T22:35:16.518Z,0.36
2019-01-27T22:37:45.128Z,-0.04
2019-01-27T22:40:15.642Z,-0.14
2019-01-27T22:42:44.330Z,-0.20
2019-01-27T22:45:15.228Z,-0.18
2019-01-27T22:47:43.866Z,-0.18
2019-01-27T22:50:15.167Z,-0.15
2019-01-27T22:52:43.789Z,0.05
2019-01-27T22:55:12.916Z,0.02
2019-01-27T22:57:41.601Z,-0.12
2019-01-27T23:00:23.567Z,-0.06
2019-01-27T23:02:52.233Z,-0.09
2019-01-27T23:05:20.863Z,-0.10
2019-01-27T23:07:49.565Z,-0.10
2019-01-27T23:10:18.250Z,-0.08
2019-01-27T23:12:46.909Z,0.03
2019-01-27T23:15:18.390Z,-0.04
2019-01-27T23:17:47.018Z,-0.10
2019-01-27T23:20:15.734Z,-0.02
2019-01-27T23:22:44.389Z,0.00
2019-01-27T23:25:13.047Z,-0.01
2019-01-27T23:27:41.706Z,0.03
2019-01-27T23:30:11.093Z,0.04
2019-01-27T23:32:39.791Z,0.06
2019-01-27T23:35:08.872Z,0.09
2019-01-27T23:37:37.496Z,0.10
2019-01-27T23:40:08.076Z,0.12
2019-01-27T23:42:36.725Z,0.13
2019-01-27T23:45:11.200Z,0.15
2019-01-27T23:47:39.878Z,0.16
2019-01-27T23:50:09.853Z,0.16
2019-01-27T23:52:38.522Z,0.18
2019-01-27T23:55:09.495Z,0.21
2019-01-27T23:57:38.141Z,0.18
